Latest Weather Observations for Groote Eylandt Airport

IDD60801

Issued at 5:31 pm CST Monday 22 April 2019 (issued every 10 minutes, with the page automatically refreshed every 10 minutes)

About weather observations | Map of weather stations | Latest weather observations for NT | Other Formats
Station Details ID: 014518 Name: GROOTE EYLANDT AIRPORT Lat: -13.97 Lon: 136.46 Height: 13.7 m
Data from the previous 72 hours. | See also: Recent months at Groote Eylandt Airport
Date/Time
CST
Temp
°C
App
Temp
°C
Dew
Point
°C
Rel
Hum
%
Delta-T
°C
Wind Press
QNH
hPa
Press
MSL
hPa
Rain since
9am
mm
Dir  Spd
km/h
Gust
km/h
Spd
kts
Gust
kts
22/05:30pm 27.9 32.2 23.3 76 3.2 SE 6 9 3 5 1010.5 1010.4 2.2
22/05:00pm 28.5 32.2 22.5 70 4.1 S 7 13 4 7 1010.2 1010.1 2.2
22/04:30pm 28.4 33.1 24.0 77 3.0 SSE 6 9 3 5 1010.0 1009.9 2.2
22/04:00pm 27.2 32.2 24.5 85 1.9 SSE 6 9 3 5 1010.1 1010.0 2.2
22/03:30pm 26.6 31.0 24.4 88 1.5 SSE 9 15 5 8 1009.9 1009.8 2.2
22/03:00pm 25.7 29.6 24.3 92 1.0 S 11 15 6 8 1010.0 1009.9 2.2
22/02:30pm 25.9 29.3 24.1 90 1.2 S 13 20 7 11 1009.8 1009.7 2.0
22/02:29pm 25.9 29.5 24.3 91 1.1 S 13 22 7 12 1009.8 1009.7 2.0
22/02:14pm 26.0 28.7 24.2 90 1.2 S 17 26 9 14 1010.0 1009.9 1.4
22/02:00pm 26.6 29.8 24.3 87 1.6 SSE 15 24 8 13 1010.1 1010.0 0.4
22/01:30pm 29.1 32.2 22.1 66 4.7 SE 9 19 5 10 1010.3 1010.2 0.0
22/01:00pm 31.0 33.9 23.1 63 5.4 SSE 13 24 7 13 1010.5 1010.4 0.0
22/12:30pm 32.0 35.4 23.3 60 6.0 E 11 17 6 9 1010.7 1010.6 0.0
22/12:00pm 31.2 33.3 21.7 57 6.4 ESE 13 19 7 10 1011.0 1010.9 0.0
22/11:30am 31.1 33.7 21.9 58 6.2 ESE 11 17 6 9 1011.4 1011.3 0.0
22/11:00am 30.7 33.1 22.3 61 5.7 SE 13 20 7 11 1011.6 1011.5 0.0
22/10:30am 30.7 32.7 22.3 61 5.7 ESE 15 24 8 13 1011.9 1011.8 0.0
22/10:00am 30.3 32.7 23.0 65 5.0 ESE 15 24 8 13 1011.8 1011.7 0.0
22/09:30am 29.2 32.3 22.9 69 4.3 SE 11 20 6 11 1011.8 1011.7 0.0
22/09:00am 28.1 32.4 23.7 77 3.0 SE 7 15 4 8 1011.5 1011.4 5.4
22/08:30am 26.1 31.9 24.0 88 1.4 CALM 0 0 0 0 1011.4 1011.3 5.4
22/08:00am 24.2 29.8 23.5 96 0.5 CALM 0 0 0 0 1011.3 1011.2 5.4
22/07:30am 22.4 26.5 22.2 99 0.1 W 4 6 2 3 1011.2 1011.1 5.4
22/07:00am 20.6 24.5 20.4 99 0.1 CALM 0 0 0 0 1010.9 1010.8 5.4
22/06:30am 20.3 24.1 20.1 99 0.1 CALM 0 0 0 0 1010.7 1010.6 5.4
22/06:00am 20.5 24.4 20.3 99 0.1 CALM 0 0 0 0 1010.4 1010.3 5.0
22/05:53am 20.5 24.4 20.3 99 0.1 CALM 0 0 0 0 1010.4 1010.3 5.0
22/05:49am 20.5 24.4 20.3 99 0.1 CALM 0 0 0 0 1010.3 1010.2 5.0
22/05:33am 20.6 24.5 20.4 99 0.1 CALM 0 0 0 0 1010.2 1010.1 5.0
22/05:30am 20.7 24.7 20.5 99 0.1 CALM 0 0 0 0 1010.2 1010.1 5.0
22/05:24am 20.8 24.8 20.6 99 0.1 CALM 0 0 0 0 1010.2 1010.1 5.0
22/05:00am 20.9 25.0 20.7 99 0.1 CALM 0 0 0 0 1010.0 1009.9 5.0
22/04:30am 21.2 25.4 21.0 99 0.1 CALM 0 0 0 0 1010.0 1009.9 5.0
22/04:00am 21.3 25.6 21.1 99 0.1 CALM 0 0 0 0 1010.1 1010.0 5.0
22/03:30am 21.5 24.5 21.3 99 0.1 W 7 9 4 5 1010.1 1010.0 5.0
22/03:00am 21.9 26.5 21.7 99 0.1 CALM 0 0 0 0 1010.3 1010.2 5.0
22/02:30am 22.1 26.7 21.8 98 0.2 CALM 0 0 0 0 1010.2 1010.1 5.0
22/02:00am 22.4 27.2 22.1 98 0.2 CALM 0 0 0 0 1010.3 1010.2 5.0
22/01:30am 22.7 27.6 22.4 98 0.2 CALM 0 0 0 0 1010.6 1010.5 5.0
22/01:00am 22.9 28.0 22.6 98 0.2 CALM 0 0 0 0 1010.9 1010.8 5.0
22/12:30am 23.1 28.2 22.6 97 0.3 CALM 0 0 0 0 1011.1 1011.0 5.0
22/12:00am 23.7 29.2 23.4 98 0.2 CALM 0 0 0 0 1011.5 1011.4 5.0
 
Date/Time
CST
Temp
°C
App
Temp
°C
Dew
Point
°C
Rel
Hum
%
Delta-T
°C
Wind Press
QNH
hPa
Press
MSL
hPa
Rain since
9am
mm
Dir  Spd
km/h
Gust
km/h
Spd
kts
Gust
kts
21/11:30pm 23.9 29.4 23.4 97 0.3 CALM 0 0 0 0 1011.6 1011.5 5.0
21/11:00pm 24.3 29.9 23.6 96 0.5 CALM 0 0 0 0 1011.8 1011.7 5.0
21/10:30pm 24.7 30.5 24.0 96 0.5 CALM 0 0 0 0 1011.9 1011.8 5.0
21/10:00pm 25.1 30.0 24.4 96 0.5 W 6 7 3 4 1011.9 1011.8 5.0
21/09:30pm 25.3 30.9 24.3 94 0.7 W 2 6 1 3 1012.0 1011.9 5.0
21/09:00pm 25.5 31.3 24.5 94 0.7 W 2 7 1 4 1012.0 1011.9 5.0
21/08:30pm 25.2 30.4 24.2 94 0.7 W 4 7 2 4 1011.7 1011.6 5.0
21/08:00pm 25.4 31.5 24.4 94 0.7 CALM 0 0 0 0 1011.5 1011.4 5.0
21/07:30pm 25.8 30.6 24.2 91 1.1 W 6 7 3 4 1011.2 1011.1 5.0
21/07:00pm 26.0 30.9 24.4 91 1.1 W 6 7 3 4 1011.0 1010.9 5.0
21/06:30pm 26.0 31.8 23.9 88 1.4 CALM 0 0 0 0 1010.7 1010.6 5.0
21/06:00pm 26.2 31.9 23.7 86 1.7 CALM 0 0 0 0 1010.6 1010.5 5.0
21/05:30pm 26.7 31.4 24.0 85 1.9 WNW 6 7 3 4 1010.4 1010.3 5.0
21/05:00pm 26.5 29.9 23.4 83 2.1 NNW 11 15 6 8 1010.3 1010.2 5.0
21/04:30pm 26.9 30.8 23.6 82 2.3 NNW 9 11 5 6 1009.8 1009.7 5.0
21/04:00pm 26.7 31.3 23.8 84 2.0 NW 6 7 3 4 1009.7 1009.6 5.0
21/03:30pm 26.0 30.1 23.9 88 1.4 NNW 9 13 5 7 1009.8 1009.7 5.0
21/03:00pm 26.5 30.5 23.8 85 1.9 SW 9 17 5 9 1009.9 1009.8 5.0
21/02:43pm 26.3 29.4 22.8 81 2.4 E 11 22 6 12 1009.9 1009.8 5.0
21/02:30pm 26.3 30.7 23.8 86 1.7 SW 7 17 4 9 1009.9 1009.8 4.0
21/02:17pm 26.4 29.2 22.3 78 2.8 S 11 19 6 10 1009.9 1009.8 2.4
21/02:00pm 28.8 31.2 21.6 65 4.8 SSE 11 20 6 11 1009.8 1009.7 0.0
21/01:35pm 32.6 34.6 21.5 52 7.5 ENE 13 22 7 12 1009.9 1009.8 0.0
21/01:30pm 32.2 33.2 21.1 52 7.5 ENE 17 22 9 12 1009.9 1009.8 0.0
21/01:18pm 32.0 35.6 22.4 57 6.6 SE 7 19 4 10 1010.0 1009.9 0.0
21/01:00pm 32.4 33.2 20.6 49 7.9 E 17 28 9 15 1010.1 1010.0 0.0
21/12:30pm 32.4 33.6 22.2 55 7.0 E 19 30 10 16 1010.5 1010.4 0.0
21/12:00pm 32.1 33.3 22.2 56 6.8 ENE 19 24 10 13 1011.0 1010.9 0.0
21/11:30am 31.7 32.2 21.2 53 7.1 ENE 20 32 11 17 1011.3 1011.2 0.0
21/11:00am 31.0 31.5 21.2 56 6.6 ENE 20 33 11 18 1011.7 1011.6 0.0
21/10:30am 31.1 32.6 23.0 62 5.6 ENE 20 30 11 16 1012.0 1011.9 0.0
21/10:00am 30.7 32.0 22.3 61 5.7 ENE 19 26 10 14 1012.0 1011.9 0.0
21/09:30am 30.0 32.4 22.9 65 4.9 ESE 15 26 8 14 1011.9 1011.8 0.0
21/09:00am 29.0 33.0 23.7 73 3.7 ESE 9 17 5 9 1011.6 1011.5 0.0
21/08:30am 27.6 32.4 24.2 82 2.4 ESE 6 9 3 5 1011.3 1011.2 0.0
21/08:00am 25.5 30.3 24.1 92 1.0 SE 6 7 3 4 1011.0 1010.9 0.0
21/07:30am 23.6 28.8 22.9 96 0.5 CALM 0 0 0 0 1010.9 1010.8 0.0
21/07:00am 22.1 26.8 21.9 99 0.1 CALM 0 6 0 3 1010.8 1010.7 0.0
21/06:30am 21.5 24.7 21.3 99 0.1 SE 6 6 3 3 1010.5 1010.4 0.0
21/06:00am 21.5 24.7 21.3 99 0.1 SE 6 7 3 4 1010.0 1009.9 0.0
21/05:30am 21.7 26.2 21.5 99 0.1 CALM 0 0 0 0 1009.7 1009.6 0.0
21/05:00am 21.6 24.9 21.4 99 0.1 SE 6 6 3 3 1009.6 1009.5 0.0
21/04:30am 21.7 26.2 21.5 99 0.1 CALM 0 6 0 3 1009.6 1009.5 0.0
21/04:00am 21.8 26.3 21.6 99 0.1 CALM 0 0 0 0 1009.6 1009.5 0.0
21/03:30am 21.8 26.3 21.5 98 0.2 CALM 0 0 0 0 1009.6 1009.5 0.0
21/03:00am 21.9 26.4 21.6 98 0.2 CALM 0 0 0 0 1009.7 1009.6 0.0
21/02:30am 22.2 26.9 21.9 98 0.2 CALM 0 0 0 0 1009.8 1009.7 0.0
21/02:00am 22.4 27.2 22.1 98 0.2 CALM 0 0 0 0 1009.9 1009.8 0.0
21/01:30am 22.4 27.2 22.1 98 0.2 CALM 0 0 0 0 1010.3 1010.2 0.0
21/01:00am 22.7 27.6 22.4 98 0.2 CALM 0 0 0 0 1010.7 1010.6 0.0
21/12:30am 23.1 28.3 22.8 98 0.2 CALM 0 0 0 0 1011.1 1011.0 0.0
21/12:00am 23.1 28.2 22.6 97 0.3 CALM 0 0 0 0 1011.2 1011.1 0.0
 
Date/Time
CST
Temp
°C
App
Temp
°C
Dew
Point
°C
Rel
Hum
%
Delta-T
°C
Wind Press
QNH
hPa
Press
MSL
hPa
Rain since
9am
mm
Dir  Spd
km/h
Gust
km/h
Spd
kts
Gust
kts
20/11:30pm 23.6 28.8 22.9 96 0.5 CALM 0 0 0 0 1011.5 1011.4 0.0
20/11:00pm 24.0 29.3 23.0 94 0.7 CALM 0 0 0 0 1011.7 1011.6 0.0
20/10:30pm 24.4 29.7 23.0 92 0.9 CALM 0 0 0 0 1011.7 1011.6 0.0
20/10:00pm 25.1 30.5 23.3 90 1.2 CALM 0 0 0 0 1011.8 1011.7 0.0
20/09:30pm 25.2 29.4 23.1 88 1.4 SE 6 6 3 3 1011.9 1011.8 0.0
20/09:00pm 25.3 29.5 23.2 88 1.4 SSE 6 9 3 5 1011.9 1011.8 0.0
20/08:30pm 25.4 30.2 22.9 86 1.7 S 2 6 1 3 1011.6 1011.5 0.0
20/08:00pm 25.7 29.8 22.2 81 2.3 S 4 7 2 4 1011.1 1011.0 0.0
20/07:30pm 26.1 29.7 22.0 78 2.7 S 6 7 3 4 1010.8 1010.7 0.0
20/07:00pm 26.5 30.5 21.3 73 3.4 S 2 7 1 4 1010.5 1010.4 0.0
20/06:30pm 26.9 30.3 21.0 70 3.9 SSE 4 7 2 4 1010.1 1010.0 0.0
20/06:00pm 27.3 28.4 20.4 66 4.5 ESE 15 20 8 11 1010.0 1009.9 0.0
20/05:30pm 27.3 29.1 21.1 69 4.1 SE 13 24 7 13 1010.0 1009.9 0.0
20/05:00pm 28.0 29.6 21.5 67 4.3 ESE 15 24 8 13 1009.9 1009.8 0.0
20/04:30pm 28.8 30.8 22.3 68 4.4 ESE 15 26 8 14 1009.5 1009.4 0.0
20/04:00pm 28.0 29.6 20.8 65 4.8 SSE 13 24 7 13 1009.4 1009.3 0.0
20/03:30pm 28.8 30.2 21.8 66 4.7 SSE 17 30 9 16 1009.6 1009.5 0.0
20/03:00pm 28.7 30.3 22.2 68 4.4 SSE 17 28 9 15 1009.6 1009.5 0.0
20/02:30pm 31.0 33.7 22.9 62 5.6 SSE 13 22 7 12 1009.7 1009.6 0.0
20/02:00pm 30.6 33.0 22.2 61 5.7 ESE 13 20 7 11 1010.0 1009.9 0.0
20/01:30pm 30.7 32.9 21.2 57 6.4 ESE 11 19 6 10 1010.3 1010.2 0.0
20/01:00pm 31.8 32.4 21.0 52 7.2 E 19 24 10 13 1010.5 1010.4 0.0
20/12:30pm 31.6 33.4 22.6 59 6.2 E 17 24 9 13 1010.9 1010.8 0.0
20/12:00pm 29.8 31.9 22.5 65 5.0 ESE 15 20 8 11 1011.7 1011.6 0.0
20/11:30am 29.6 32.0 22.3 65 5.0 ESE 13 22 7 12 1012.1 1012.0 0.0
20/11:00am 29.9 31.9 22.3 63 5.2 ESE 15 24 8 13 1012.3 1012.2 0.0
20/10:30am 30.9 33.5 23.3 64 5.2 E 15 22 8 12 1012.6 1012.5 0.0
20/10:00am 29.4 31.1 22.4 66 4.8 ESE 17 22 9 12 1012.7 1012.6 0.0
20/09:30am 29.9 33.0 22.9 66 4.8 ESE 11 15 6 8 1012.5 1012.4 0.0
20/09:00am 29.1 32.6 22.8 69 4.3 ESE 9 17 5 9 1012.3 1012.2 24.8
20/08:30am 28.4 32.2 23.5 75 3.4 ESE 9 13 5 7 1012.1 1012.0 24.8
20/08:00am 26.9 31.3 23.4 81 2.4 E 6 7 3 4 1012.0 1011.9 24.8
20/07:30am 24.9 30.5 23.5 92 1.0 CALM 0 0 0 0 1011.8 1011.7 24.8
20/07:00am 22.6 27.5 22.4 99 0.1 CALM 0 0 0 0 1011.5 1011.4 24.8
20/06:30am 22.3 27.0 22.0 98 0.2 CALM 0 0 0 0 1011.3 1011.2 24.8
20/06:00am 22.7 27.3 22.4 98 0.2 SSE 2 6 1 3 1011.1 1011.0 24.8
20/05:30am 22.9 28.0 22.6 98 0.2 CALM 0 0 0 0 1010.8 1010.7 24.8
20/05:00am 23.0 28.1 22.7 98 0.2 CALM 0 0 0 0 1010.8 1010.7 24.8
20/04:30am 23.3 28.6 23.0 98 0.2 CALM 0 0 0 0 1010.7 1010.6 24.8
20/04:00am 23.6 29.0 23.3 98 0.2 CALM 0 0 0 0 1010.8 1010.7 24.8
20/03:30am 23.5 28.8 23.0 97 0.3 CALM 0 0 0 0 1010.8 1010.7 24.8
20/03:00am 23.7 29.0 23.0 96 0.5 CALM 0 0 0 0 1010.9 1010.8 24.8
20/02:30am 23.8 29.1 23.0 95 0.5 CALM 0 0 0 0 1010.9 1010.8 24.8
20/02:00am 24.2 29.6 23.2 94 0.7 CALM 0 0 0 0 1011.1 1011.0 24.8
20/01:30am 24.2 28.9 23.3 95 0.6 SSE 4 6 2 3 1011.4 1011.3 24.8
20/01:00am 24.3 28.5 23.1 93 0.8 SE 6 7 3 4 1011.9 1011.8 24.8
20/12:30am 24.2 28.4 23.2 94 0.7 SE 6 7 3 4 1012.2 1012.1 24.8
20/12:00am 24.2 29.2 23.2 94 0.7 SE 2 6 1 3 1012.2 1012.1 24.8
 
Date/Time
CST
Temp
°C
App
Temp
°C
Dew
Point
°C
Rel
Hum
%
Delta-T
°C
Wind Press
QNH
hPa
Press
MSL
hPa
Rain since
9am
mm
Dir  Spd
km/h
Gust
km/h
Spd
kts
Gust
kts
19/11:30pm 24.9 30.0 24.0 95 0.6 SE 4 6 2 3 1012.2 1012.1 24.8
19/11:00pm 24.8 29.3 23.0 90 1.2 SE 4 6 2 3 1012.2 1012.1 24.8
19/10:30pm 24.9 29.1 23.1 90 1.2 SE 6 7 3 4 1012.1 1012.0 24.8
19/10:00pm 24.9 29.0 23.0 89 1.3 ESE 6 9 3 5 1012.2 1012.1 24.8
19/09:30pm 24.4 29.9 23.4 94 0.7 CALM 0 7 0 4 1012.3 1012.2 24.8
19/09:00pm 24.4 29.3 23.0 92 0.9 ESE 2 6 1 3 1012.3 1012.2 24.8
19/08:30pm 25.2 29.5 22.7 86 1.7 E 4 6 2 3 1012.2 1012.1 24.8
19/08:00pm 25.8 29.7 22.9 84 2.0 ESE 7 9 4 5 1012.0 1011.9 24.8
19/07:30pm 26.0 30.0 22.7 82 2.2 ESE 6 7 3 4 1011.9 1011.8 24.8
19/07:00pm 25.9 29.8 22.6 82 2.2 ESE 6 9 3 5 1011.6 1011.5 24.8
19/06:30pm 25.8 29.6 22.7 83 2.1 SE 7 9 4 5 1011.4 1011.3 24.8
19/06:00pm 25.9 29.1 22.4 81 2.4 SE 9 17 5 9 1011.5 1011.4 24.8

Other formats

Comma delimited format used in spreadsheet applications
http://www.bom.gov.au/fwo/IDD60801/IDD60801.94153.axf

JavaScript Object Notation format (JSON) in row-major order
http://www.bom.gov.au/fwo/IDD60801/IDD60801.94153.json

Data quality

Most of these data are generated automatically and are frequently updated. Quality checks on data are not normally performed. It is possible for incorrect values to appear. Refer to information at About Latest Weather Observations and please check the disclaimer before using these data.